Airfield :
LOGIN :

Register | Disclaimer

   EN    FR    IT 

 










Legend :    VFR   Marginal VFR   IFR   Intensive IFR   Very Intensive IFR
Visi :
Ceiling :
>= 8 km
>= 3000ft
5 to 8 km
1000 to 3000 ft
1500m to 5 km
500 to 1000 ft
800 to 1500m
200 to 500 ft
< 800m
< 200 ft
Symbols :   Thunderstorms  Fog  Heavy snow  Heavy precipitations  Wind > 20 kt
SIGMETs :     Misc.  Thunderstorms  Icing  Turbulence  Mountain Waves  Volcanic Ashes







- Airport Elevation : 1000 ft
- IATA code : PEV


LHPP - Pécs Pogany

CURRENT METAR :
  • 221545Z 05008KT 6000 -SN SCT016 OVC083 M02/M04 Q1009

EXPIRED METARs :
  • 221515Z 05010KT 6000 -SN SCT016 OVC083 M02/M04 Q1010
  • 221445Z 05010KT 6000 -SN SCT016 OVC083 M02/M04 Q1010
  • 221415Z 06009KT 6000 -SN SCT016 OVC083 M02/M04 Q1010
  • 221345Z 05008KT 6000 SCT020 OVC083 M02/M04 Q1011
  • 221315Z 06008KT 6000 SCT020 OVC083 M02/M04 Q1011

TAF TAF LHPP
Valid from the 22 at 15:00 until the 23 at 00:00 UTC


221415Z 2215/2224 06007KT 6000 BKN020 OVC080
BECMG 2215/2218 4000 -SN OVC015
TEMPO 2218/2224 1500 SN BKN005
PROB40
TEMPO 2218/2224 0800 SN OVC002
No reported NOTAMs for that airfield.



MET'MAP, your aeronautical weather chart ! - Copyright ORBIFLY December 2007 - Disclaimer

ORBIFLY MET'MAP TEAM :

Programming & Development : Alexandra Zaïnal
Concept & Development : Baudouin d'Aumeries
Co-Development & Prog : Marc-Olivier Méhu
Technical & hardware support : Manuel Goepfert

Contact : metmap@orbifly.com




SOURCES & CREDITS :

   NOAA